createdAt,value
2018-01-05T00:01:12.690Z,3.60
2018-01-05T00:21:46.734Z,3.17
2018-01-05T00:42:20.776Z,3.60
2018-01-05T01:02:54.211Z,3.57
2018-01-05T01:23:31.645Z,3.80
2018-01-05T01:44:06.593Z,3.43
2018-01-05T02:04:43.114Z,3.83
2018-01-05T02:25:15.316Z,3.40
2018-01-05T02:45:50.256Z,4.30
2018-01-05T03:06:25.531Z,5.17
2018-01-05T03:27:01.008Z,4.00
2018-01-05T03:47:33.926Z,4.77
2018-01-05T04:08:09.198Z,3.33
2018-01-05T04:28:42.320Z,2.87
2018-01-05T04:49:14.855Z,2.90
2018-01-05T05:09:47.054Z,1.90
2018-01-05T05:30:21.990Z,1.70
2018-01-05T05:50:55.650Z,2.20
2018-01-05T06:11:31.305Z,3.00
2018-01-05T06:32:05.658Z,2.40
2018-01-05T06:52:42.204Z,2.27
2018-01-05T07:13:16.200Z,1.53
2018-01-05T07:33:53.678Z,1.90
2018-01-05T07:54:27.666Z,1.20
2018-01-05T08:15:01.712Z,1.30
2018-01-05T08:35:37.346Z,1.47
2018-01-05T08:56:10.555Z,1.23
2018-01-05T09:16:46.799Z,1.00
2018-01-05T09:37:21.015Z,0.80
2018-01-05T09:57:53.768Z,0.80
2018-01-05T10:18:29.456Z,1.00
2018-01-05T10:39:01.240Z,1.10
2018-01-05T10:59:34.665Z,0.80
2018-01-05T11:20:10.104Z,0.80
2018-01-05T11:40:43.063Z,0.80
2018-01-05T12:01:17.535Z,1.10
2018-01-05T12:21:50.532Z,0.80
2018-01-05T12:42:26.727Z,0.93
2018-01-05T13:02:59.846Z,0.80
2018-01-05T13:23:34.817Z,1.47
2018-01-05T13:44:10.393Z,0.90
2018-01-05T14:04:45.666Z,1.20
2018-01-05T14:25:19.713Z,1.80
2018-01-05T14:45:51.912Z,1.70
2018-01-05T15:06:25.382Z,1.00
2018-01-05T15:26:58.462Z,1.27
2018-01-05T15:47:34.981Z,1.77
2018-01-05T16:08:09.925Z,1.63
2018-01-05T16:28:43.612Z,1.60
2018-01-05T16:49:14.322Z,1.93
2018-01-05T17:09:48.675Z,2.67
2018-01-05T17:30:22.036Z,2.93
2018-01-05T17:50:53.076Z,3.33
2018-01-05T18:11:27.446Z,3.90
2018-01-05T18:32:03.347Z,5.60
2018-01-05T18:52:34.586Z,5.83
2018-01-05T19:13:12.935Z,7.43
2018-01-05T19:33:49.376Z,5.40
2018-01-05T19:54:23.595Z,3.13
2018-01-05T20:15:00.594Z,4.27
2018-01-05T20:35:34.632Z,3.30
2018-01-05T20:56:13.727Z,2.63
2018-01-05T21:16:51.324Z,3.30
2018-01-05T21:37:26.600Z,2.67
2018-01-05T21:58:01.875Z,2.47
2018-01-05T22:18:35.914Z,2.17
2018-01-05T22:39:16.406Z,2.30
2018-01-05T22:59:50.144Z,2.77
2018-01-05T23:20:25.721Z,2.87
2018-01-05T23:40:58.842Z,2.70
